QTR1460 HCMM-HDAM
Flight info
| Callsign | QTR1460 |
|---|---|
| Flight time | N/A |
| Altitude | 38000 |
| Route | MOGDU UR775 LUBAR LUBAR1R |
| Aircraft | A320/M-SDE3FGHIRWY/LB1 |
Departure
| Time | N/A |
|---|---|
| Airport | Aden Adde International Airport (HCMM) |
Arrival
| Time | 2026-05-05 20:21 |
|---|---|
| Airport | Djibouti-Ambouli Airport (HDAM) |
| Time | Latitude | Longitude | Altitude | Speed | Heading |
|---|---|---|---|---|---|
| 2026-05-05 20:07 | 11.01467 | 43.23218 | 18669 ft | 338 kts | 323° |
| 2026-05-05 20:07 | 11.03313 | 43.21735 | 18224 ft | 339 kts | 323° |
| 2026-05-05 20:08 | 11.05183 | 43.20261 | 17735 ft | 340 kts | 324° |
| 2026-05-05 20:08 | 11.07064 | 43.18804 | 17259 ft | 339 kts | 325° |
| 2026-05-05 20:08 | 11.08952 | 43.17365 | 16792 ft | 339 kts | 324° |
| 2026-05-05 20:08 | 11.10802 | 43.15850 | 16189 ft | 344 kts | 322° |
| 2026-05-05 20:09 | 11.12664 | 43.14290 | 15603 ft | 347 kts | 322° |
| 2026-05-05 20:09 | 11.14543 | 43.12738 | 15049 ft | 349 kts | 323° |
| 2026-05-05 20:09 | 11.16445 | 43.11208 | 14540 ft | 349 kts | 324° |
| 2026-05-05 20:09 | 11.18360 | 43.09691 | 14008 ft | 349 kts | 323° |
| 2026-05-05 20:10 | 11.20267 | 43.08103 | 13119 ft | 359 kts | 323° |
| 2026-05-05 20:10 | 11.22225 | 43.06492 | 12334 ft | 364 kts | 323° |
| 2026-05-05 20:10 | 11.24174 | 43.04893 | 11670 ft | 365 kts | 323° |
| 2026-05-05 20:10 | 11.26141 | 43.03264 | 11052 ft | 364 kts | 324° |
| 2026-05-05 20:11 | 11.28104 | 43.01631 | 10459 ft | 364 kts | 324° |
| 2026-05-05 20:11 | 11.30050 | 42.99992 | 9963 ft | 361 kts | 324° |
| 2026-05-05 20:11 | 11.31958 | 42.98386 | 9743 ft | 350 kts | 324° |
| 2026-05-05 20:11 | 11.33802 | 42.96826 | 9524 ft | 340 kts | 324° |
| 2026-05-05 20:12 | 11.35606 | 42.95325 | 9284 ft | 331 kts | 325° |
| 2026-05-05 20:12 | 11.37404 | 42.93873 | 8887 ft | 329 kts | 325° |
| 2026-05-05 20:12 | 11.39205 | 42.92449 | 8437 ft | 328 kts | 326° |
| 2026-05-05 20:12 | 11.41035 | 42.91065 | 7993 ft | 326 kts | 330° |
| 2026-05-05 20:13 | 11.43014 | 42.90033 | 7724 ft | 314 kts | 344° |
| 2026-05-05 20:13 | 11.45125 | 42.89650 | 7358 ft | 305 kts | 2° |
| 2026-05-05 20:13 | 11.47224 | 42.89736 | 7134 ft | 297 kts | 6° |
| 2026-05-05 20:13 | 11.49251 | 42.89861 | 6980 ft | 286 kts | 7° |
| 2026-05-05 20:14 | 11.51151 | 42.90005 | 6677 ft | 263 kts | 7° |
| 2026-05-05 20:14 | 11.52932 | 42.90156 | 6103 ft | 250 kts | 13° |
| 2026-05-05 20:14 | 11.54373 | 42.90921 | 5555 ft | 229 kts | 58° |
| 2026-05-05 20:14 | 11.54833 | 42.92400 | 5066 ft | 217 kts | 79° |
| 2026-05-05 20:15 | 11.55014 | 42.93942 | 4681 ft | 221 kts | 85° |
| 2026-05-05 20:15 | 11.55063 | 42.95514 | 4332 ft | 222 kts | 88° |
| 2026-05-05 20:15 | 11.55035 | 42.97056 | 4017 ft | 212 kts | 91° |
| 2026-05-05 20:15 | 11.54985 | 42.98509 | 3726 ft | 202 kts | 91° |
| 2026-05-05 20:16 | 11.54955 | 42.99918 | 3374 ft | 197 kts | 90° |
| 2026-05-05 20:16 | 11.54935 | 43.01239 | 3274 ft | 175 kts | 90° |
| 2026-05-05 20:16 | 11.54929 | 43.02406 | 3159 ft | 157 kts | 90° |
| 2026-05-05 20:16 | 11.54896 | 43.03522 | 2742 ft | 162 kts | 91° |
| 2026-05-05 20:17 | 11.54879 | 43.04674 | 2384 ft | 161 kts | 90° |
| 2026-05-05 20:17 | 11.54876 | 43.05800 | 2076 ft | 155 kts | 90° |
| 2026-05-05 20:17 | 11.54885 | 43.06805 | 1927 ft | 134 kts | 90° |
| 2026-05-05 20:17 | 11.54895 | 43.07770 | 1537 ft | 138 kts | 90° |
| 2026-05-05 20:18 | 11.54894 | 43.08158 | 1419 ft | 135 kts | 95° |
| 2026-05-05 20:18 | 11.54818 | 43.09062 | 1246 ft | 126 kts | 92° |
| 2026-05-05 20:19 | 11.54817 | 43.09438 | 1156 ft | 126 kts | 89° |
| 2026-05-05 20:19 | 11.54830 | 43.10275 | 946 ft | 137 kts | 92° |
| 2026-05-05 20:19 | 11.54802 | 43.11327 | 884 ft | 148 kts | 91° |
| 2026-05-05 20:19 | 11.54786 | 43.12327 | 618 ft | 137 kts | 92° |
| 2026-05-05 20:20 | 11.54772 | 43.13269 | 362 ft | 130 kts | 92° |
| 2026-05-05 20:20 | 11.54759 | 43.14168 | 146 ft | 123 kts | 92° |
| 2026-05-05 20:20 | 11.54745 | 43.14984 | 63 ft | 104 kts | 89° |
| 2026-05-05 20:20 | 11.54735 | 43.15586 | 62 ft | 61 kts | 92° |
| 2026-05-05 20:21 | 11.54726 | 43.15958 | 61 ft | 51 kts | 92° |
| 2026-05-05 20:21 | 11.54725 | 43.16314 | 56 ft | 49 kts | 91° |
| 2026-05-05 20:21 | 11.54701 | 43.16511 | 54 ft | 15 kts | 149° |
| 2026-05-05 20:21 | 11.54588 | 43.16512 | 60 ft | 18 kts | 189° |
| 2026-05-05 20:22 | 11.54556 | 43.16400 | 56 ft | 20 kts | 271° |
| 2026-05-05 20:22 | 11.54560 | 43.16245 | 58 ft | 24 kts | 271° |
| 2026-05-05 20:22 | 11.54563 | 43.16061 | 60 ft | 28 kts | 270° |
| 2026-05-05 20:22 | 11.54562 | 43.15848 | 60 ft | 32 kts | 269° |
| 2026-05-05 20:23 | 11.54565 | 43.15651 | 60 ft | 25 kts | 272° |
| 2026-05-05 20:23 | 11.54569 | 43.15460 | 58 ft | 29 kts | 271° |
| 2026-05-05 20:23 | 11.54571 | 43.15288 | 60 ft | 19 kts | 271° |
| 2026-05-05 20:23 | 11.54579 | 43.15165 | 60 ft | 13 kts | 294° |
| 2026-05-05 20:24 | 11.54670 | 43.15147 | 61 ft | 15 kts | 0° |
| 2026-05-05 20:24 | 11.54785 | 43.15149 | 63 ft | 18 kts | 1° |
| 2026-05-05 20:24 | 11.54931 | 43.15147 | 60 ft | 19 kts | 0° |
| 2026-05-05 20:24 | 11.55003 | 43.15115 | 58 ft | 13 kts | 281° |
| 2026-05-05 20:25 | 11.55006 | 43.15014 | 60 ft | 16 kts | 271° |
| 2026-05-05 20:25 | 11.55048 | 43.14956 | 57 ft | 11 kts | 5° |
| 2026-05-05 20:25 | 11.55120 | 43.14958 | 56 ft | 6 kts | 0° |
| 2026-05-05 20:25 | 11.55138 | 43.14958 | 60 ft | 0 kts | 0° |